Time;durP1;ratioP1;P1;durP2;ratioP2;P2;SDS_P1;SDS_P2;PMS_P1;PMS_P2;Temp;Humidity;BMP_temperature;BMP_pressure;BME280_temperature;BME280_humidity;BME280_pressure;Samples;Min_cycle;Max_cycle;Signal;HPM_P1;HPM_P2
2023/11/03 00:01:43;;;;;;;3.13;1.50;;;;;;;;;;5115216;28;20024;-29
2023/11/03 00:04:09;;;;;;;7.32;1.67;;;;;;;;;;5115166;28;20422;-30
2023/11/03 00:06:39;;;;;;;3.65;1.60;;;;;;;;;;5115071;28;20054;-30
2023/11/03 00:09:07;;;;;;;2.95;1.42;;;;;;;;;;5115032;28;20019;-29
2023/11/03 00:11:33;;;;;;;3.30;1.50;;;;;;;;;;5114620;28;20529;-29
2023/11/03 00:13:58;;;;;;;3.27;1.43;;;;;;;;;;5096185;28;20062;-29
2023/11/03 00:16:23;;;;;;;4.20;1.40;;;;;;;;;;5114215;28;20281;-30
2023/11/03 00:18:49;;;;;;;5.27;1.83;;;;;;;;;;5114353;28;20024;-29
2023/11/03 00:21:14;;;;;;;3.95;2.08;;;;;;;;;;5114227;28;20727;-29
2023/11/03 00:23:42;;;;;;;4.43;1.58;;;;;;;;;;5114382;28;20018;-29
2023/11/03 00:26:08;;;;;;;8.75;1.35;;;;;;;;;;5114135;28;20012;-29
2023/11/03 00:28:34;;;;;;;5.25;1.30;;;;;;;;;;5114715;28;20023;-29
2023/11/03 00:30:59;;;;;;;4.80;1.60;;;;;;;;;;5114064;28;20493;-29
2023/11/03 00:33:24;;;;;;;7.35;1.38;;;;;;;;;;5114351;28;20253;-29
2023/11/03 00:35:49;;;;;;;5.18;1.35;;;;;;;;;;5114226;28;20024;-29
2023/11/03 00:38:15;;;;;;;5.00;1.20;;;;;;;;;;5114064;28;20455;-29
2023/11/03 00:40:40;;;;;;;5.75;1.25;;;;;;;;;;5095780;28;20261;-29
2023/11/03 00:43:06;;;;;;;4.73;1.53;;;;;;;;;;5113996;28;20015;-29
2023/11/03 00:45:31;;;;;;;4.53;1.30;;;;;;;;;;5113967;28;20604;-29
2023/11/03 00:47:56;;;;;;;4.18;1.40;;;;;;;;;;5114174;28;20019;-29
2023/11/03 00:50:21;;;;;;;6.82;1.38;;;;;;;;;;5113715;28;20363;-29
2023/11/03 00:52:48;;;;;;;3.47;1.17;;;;;;;;;;5095692;28;20504;-29
2023/11/03 00:55:14;;;;;;;4.00;1.58;;;;;;;;;;5114077;28;20026;-29
2023/11/03 00:57:39;;;;;;;2.45;1.30;;;;;;;;;;5114463;28;20016;-29
2023/11/03 01:00:05;;;;;;;5.68;1.63;;;;;;;;;;5120647;28;20050;-29
2023/11/03 01:02:30;;;;;;;5.30;1.60;;;;;;;;;;5120882;28;20014;-29
2023/11/03 01:04:55;;;;;;;2.88;1.25;;;;;;;;;;5120630;28;20095;-29
2023/11/03 01:07:21;;;;;;;5.13;1.60;;;;;;;;;;5120576;28;20055;-29
2023/11/03 01:09:46;;;;;;;4.57;1.70;;;;;;;;;;5121101;28;20031;-30
2023/11/03 01:12:11;;;;;;;6.13;1.65;;;;;;;;;;5120529;28;20581;-29
2023/11/03 01:14:37;;;;;;;2.63;1.20;;;;;;;;;;5120820;28;20046;-30
2023/11/03 01:17:02;;;;;;;3.13;1.40;;;;;;;;;;5120877;28;20288;-30
2023/11/03 01:19:28;;;;;;;3.90;1.40;;;;;;;;;;5120422;28;20458;-29
2023/11/03 01:21:53;;;;;;;2.92;1.23;;;;;;;;;;5120631;28;20024;-30
2023/11/03 01:24:19;;;;;;;4.82;1.27;;;;;;;;;;5120944;28;20019;-30
2023/11/03 01:26:44;;;;;;;2.50;1.27;;;;;;;;;;5120362;28;20026;-29
2023/11/03 01:29:09;;;;;;;5.82;1.60;;;;;;;;;;5120352;28;20257;-30
2023/11/03 01:31:36;;;;;;;4.67;1.77;;;;;;;;;;5120395;28;20015;-29
2023/11/03 01:34:05;;;;;;;8.02;2.05;;;;;;;;;;5120565;28;20249;-30
2023/11/03 01:36:30;;;;;;;4.75;1.38;;;;;;;;;;5120132;28;20025;-30
2023/11/03 01:38:55;;;;;;;4.88;1.33;;;;;;;;;;5120269;28;20020;-30
2023/11/03 01:41:20;;;;;;;3.90;1.38;;;;;;;;;;5120560;28;20035;-29
2023/11/03 01:44:12;;;;;;;6.23;1.57;;;;;;;;;;5120832;28;20019;-30
2023/11/03 01:46:38;;;;;;;5.05;1.48;;;;;;;;;;5116622;28;20265;-30
2023/11/03 01:49:05;;;;;;;4.03;1.60;;;;;;;;;;5101877;28;20015;-30
2023/11/03 01:51:30;;;;;;;4.72;1.55;;;;;;;;;;5120229;28;20082;-30
2023/11/03 01:53:56;;;;;;;5.30;1.45;;;;;;;;;;5120396;28;20374;-30
2023/11/03 01:56:21;;;;;;;5.57;1.75;;;;;;;;;;5120273;28;20153;-29
2023/11/03 01:58:47;;;;;;;2.70;1.48;;;;;;;;;;5120653;28;20136;-30
2023/11/03 02:01:12;;;;;;;4.28;1.67;;;;;;;;;;5120067;28;20492;-30
2023/11/03 02:03:38;;;;;;;3.47;1.45;;;;;;;;;;5120030;28;20023;-30
2023/11/03 02:06:03;;;;;;;3.85;1.58;;;;;;;;;;5120774;28;20020;-30
2023/11/03 02:08:28;;;;;;;6.38;1.88;;;;;;;;;;5120247;28;20021;-30
2023/11/03 02:10:54;;;;;;;5.20;1.70;;;;;;;;;;5117079;28;20036;-29
2023/11/03 02:13:19;;;;;;;5.87;1.97;;;;;;;;;;5116671;28;20020;-30
2023/11/03 02:15:44;;;;;;;5.33;1.70;;;;;;;;;;5117214;28;20281;-30
2023/11/03 02:18:10;;;;;;;4.80;1.80;;;;;;;;;;5116682;28;20246;-29
2023/11/03 02:20:35;;;;;;;5.25;1.58;;;;;;;;;;5116881;28;20245;-29
2023/11/03 02:23:01;;;;;;;5.57;1.93;;;;;;;;;;5116582;28;20068;-29
2023/11/03 02:25:27;;;;;;;4.65;1.58;;;;;;;;;;5117035;28;20265;-30
2023/11/03 02:27:52;;;;;;;6.32;1.40;;;;;;;;;;5115287;28;20069;-29
2023/11/03 02:30:17;;;;;;;3.65;1.70;;;;;;;;;;5114168;28;20011;-30
2023/11/03 02:32:42;;;;;;;3.42;1.27;;;;;;;;;;5114246;28;20020;-30
2023/11/03 02:35:09;;;;;;;5.53;1.70;;;;;;;;;;5114486;28;20019;-30
2023/11/03 02:37:34;;;;;;;2.22;1.50;;;;;;;;;;5114155;28;20288;-30
2023/11/03 02:39:59;;;;;;;3.35;1.60;;;;;;;;;;5114081;28;20478;-29
2023/11/03 02:42:25;;;;;;;3.22;1.33;;;;;;;;;;5114549;28;20012;-29
2023/11/03 02:44:50;;;;;;;7.43;1.92;;;;;;;;;;5113969;28;20028;-29
2023/11/03 02:47:15;;;;;;;8.60;1.57;;;;;;;;;;5114166;28;20481;-29
2023/11/03 02:49:40;;;;;;;5.93;1.70;;;;;;;;;;5114120;28;20264;-30
2023/11/03 02:52:05;;;;;;;4.47;1.70;;;;;;;;;;5113904;28;20289;-29
2023/11/03 02:54:31;;;;;;;4.00;1.50;;;;;;;;;;5115627;28;20311;-30
2023/11/03 02:56:56;;;;;;;4.20;1.52;;;;;;;;;;5116184;28;20518;-30
2023/11/03 02:59:21;;;;;;;5.00;1.77;;;;;;;;;;5115911;28;20059;-29
2023/11/03 03:01:47;;;;;;;3.45;1.50;;;;;;;;;;5116380;28;20020;-29
2023/11/03 03:04:12;;;;;;;4.57;1.60;;;;;;;;;;5116368;28;20068;-29
2023/11/03 03:06:37;;;;;;;7.53;2.35;;;;;;;;;;5115736;28;20245;-29
2023/11/03 03:09:03;;;;;;;4.78;1.70;;;;;;;;;;5115912;28;20030;-29
2023/11/03 03:11:28;;;;;;;7.88;1.73;;;;;;;;;;5116338;28;20027;-29
2023/11/03 03:13:54;;;;;;;6.07;1.80;;;;;;;;;;5115912;28;20129;-29
2023/11/03 03:16:19;;;;;;;7.73;1.40;;;;;;;;;;5115506;28;20466;-29
2023/11/03 03:18:46;;;;;;;4.65;1.67;;;;;;;;;;5115493;28;20241;-29
2023/11/03 03:21:12;;;;;;;11.13;1.83;;;;;;;;;;5114832;28;20016;-29
2023/11/03 03:23:37;;;;;;;5.28;1.15;;;;;;;;;;5115115;28;20347;-29
2023/11/03 03:26:02;;;;;;;3.77;1.40;;;;;;;;;;5115888;28;20018;-29
2023/11/03 03:28:27;;;;;;;6.78;1.40;;;;;;;;;;5115807;28;20658;-30
2023/11/03 03:30:52;;;;;;;9.80;1.67;;;;;;;;;;5115840;28;20024;-29
2023/11/03 03:33:18;;;;;;;4.10;1.27;;;;;;;;;;5115230;28;20722;-29
2023/11/03 03:35:43;;;;;;;6.90;1.48;;;;;;;;;;5115347;28;20289;-29
2023/11/03 03:38:08;;;;;;;6.20;1.40;;;;;;;;;;5115394;28;20446;-29
2023/11/03 03:40:33;;;;;;;3.70;1.03;;;;;;;;;;5115014;28;20035;-29
2023/11/03 03:43:02;;;;;;;8.23;1.48;;;;;;;;;;5114953;28;20273;-29
2023/11/03 03:45:28;;;;;;;9.77;1.38;;;;;;;;;;5115530;28;20031;-29
2023/11/03 03:47:53;;;;;;;5.20;1.30;;;;;;;;;;5114930;28;20020;-29
2023/11/03 03:50:18;;;;;;;5.22;1.27;;;;;;;;;;5114980;28;20155;-29
2023/11/03 03:52:43;;;;;;;5.30;1.02;;;;;;;;;;5114746;28;20016;-29
2023/11/03 03:55:08;;;;;;;6.47;1.17;;;;;;;;;;5115274;28;20020;-29
2023/11/03 03:57:33;;;;;;;5.00;1.10;;;;;;;;;;5115217;28;20024;-29
2023/11/03 03:59:59;;;;;;;5.83;0.90;;;;;;;;;;5114739;28;20257;-29
2023/11/03 04:02:24;;;;;;;4.15;1.10;;;;;;;;;;5114546;28;20250;-29
2023/11/03 04:04:49;;;;;;;3.28;0.60;;;;;;;;;;5114825;28;20012;-29
2023/11/03 04:07:15;;;;;;;6.53;1.10;;;;;;;;;;5114416;28;20061;-29
2023/11/03 04:09:41;;;;;;;4.97;0.98;;;;;;;;;;5114704;28;20028;-29
2023/11/03 04:12:06;;;;;;;3.22;0.90;;;;;;;;;;5114376;28;20092;-29
2023/11/03 04:14:31;;;;;;;8.27;1.27;;;;;;;;;;5114855;28;20016;-29
2023/11/03 04:16:56;;;;;;;6.80;1.10;;;;;;;;;;5114253;28;20020;-29
2023/11/03 04:19:22;;;;;;;7.95;1.50;;;;;;;;;;5114337;28;20257;-29
2023/11/03 04:21:47;;;;;;;6.47;1.17;;;;;;;;;;5114896;28;20016;-29
2023/11/03 04:24:12;;;;;;;3.70;0.70;;;;;;;;;;5114261;28;20245;-29
2023/11/03 04:26:38;;;;;;;7.17;1.30;;;;;;;;;;5114538;28;20277;-29
2023/11/03 04:29:03;;;;;;;7.60;1.20;;;;;;;;;;5114391;28;20253;-30
2023/11/03 04:31:28;;;;;;;4.78;1.13;;;;;;;;;;5114756;28;20114;-29
2023/11/03 04:33:54;;;;;;;7.07;1.53;;;;;;;;;;5113694;28;20088;-29
2023/11/03 04:36:19;;;;;;;7.40;1.38;;;;;;;;;;5113995;28;20281;-29
2023/11/03 04:38:45;;;;;;;8.32;1.30;;;;;;;;;;5114094;28;20040;-29
2023/11/03 04:41:10;;;;;;;8.52;1.30;;;;;;;;;;5114027;28;20016;-29
2023/11/03 04:43:37;;;;;;;9.50;1.60;;;;;;;;;;5114061;28;20503;-29
2023/11/03 04:46:03;;;;;;;4.53;1.35;;;;;;;;;;5114016;28;20779;-29
2023/11/03 04:48:29;;;;;;;8.90;1.40;;;;;;;;;;5113945;28;20179;-29
2023/11/03 04:50:54;;;;;;;8.85;1.30;;;;;;;;;;5113955;28;20069;-29
2023/11/03 04:53:20;;;;;;;7.70;1.15;;;;;;;;;;5113923;28;20023;-29
2023/11/03 04:55:45;;;;;;;8.25;1.35;;;;;;;;;;5114080;28;20034;-29
2023/11/03 04:58:10;;;;;;;5.17;1.00;;;;;;;;;;5113837;28;20470;-29
2023/11/03 05:00:36;;;;;;;4.55;1.20;;;;;;;;;;5114056;28;20261;-36
2023/11/03 05:03:01;;;;;;;7.35;1.25;;;;;;;;;;5113780;28;20047;-29
2023/11/03 05:05:32;;;;;;;9.70;1.75;;;;;;;;;;5114083;28;20096;-29
2023/11/03 05:07:57;;;;;;;10.95;1.50;;;;;;;;;;5095564;28;20011;-29
2023/11/03 05:10:22;;;;;;;8.13;1.70;;;;;;;;;;5112721;28;20155;-29
2023/11/03 05:12:47;;;;;;;9.73;1.40;;;;;;;;;;5113045;28;20264;-29
2023/11/03 05:15:12;;;;;;;8.03;1.57;;;;;;;;;;5113659;28;20012;-29
2023/11/03 05:17:38;;;;;;;7.82;1.23;;;;;;;;;;5114038;28;20274;-29
2023/11/03 05:20:07;;;;;;;7.70;1.23;;;;;;;;;;5113929;28;20008;-29
2023/11/03 05:22:32;;;;;;;8.15;1.38;;;;;;;;;;5113828;28;20037;-29
2023/11/03 05:24:57;;;;;;;11.63;1.47;;;;;;;;;;5113612;28;20015;-29
2023/11/03 05:27:23;;;;;;;6.80;1.33;;;;;;;;;;5113506;28;20326;-29
2023/11/03 05:29:48;;;;;;;7.90;1.48;;;;;;;;;;5113518;28;20257;-29
2023/11/03 05:32:13;;;;;;;7.23;1.47;;;;;;;;;;5114051;28;20023;-29
2023/11/03 05:34:40;;;;;;;8.23;1.20;;;;;;;;;;5113513;28;20310;-29
2023/11/03 05:37:05;;;;;;;5.47;1.08;;;;;;;;;;5113674;28;20313;-29
2023/11/03 05:39:32;;;;;;;9.80;2.05;;;;;;;;;;5113738;28;20482;-29
2023/11/03 05:41:57;;;;;;;6.05;1.33;;;;;;;;;;5113383;28;20019;-29
2023/11/03 05:44:23;;;;;;;4.72;1.15;;;;;;;;;;5113965;28;20012;-29
2023/11/03 05:46:49;;;;;;;6.10;1.50;;;;;;;;;;5117131;28;20171;-29
2023/11/03 05:49:14;;;;;;;11.40;1.20;;;;;;;;;;5117267;28;20028;-30
2023/11/03 05:51:40;;;;;;;13.00;1.92;;;;;;;;;;5117508;28;20039;-30
2023/11/03 05:54:05;;;;;;;6.82;1.48;;;;;;;;;;5117184;28;20015;-29
2023/11/03 05:56:30;;;;;;;8.75;1.75;;;;;;;;;;5117231;28;20024;-30
2023/11/03 05:58:55;;;;;;;7.67;1.70;;;;;;;;;;5116997;28;20482;-29
2023/11/03 06:01:21;;;;;;;6.23;1.50;;;;;;;;;;5116969;28;20337;-29
2023/11/03 06:03:46;;;;;;;8.07;1.90;;;;;;;;;;5116933;28;20261;-29
2023/11/03 06:06:12;;;;;;;5.13;1.30;;;;;;;;;;5098653;28;20012;-30
2023/11/03 06:08:37;;;;;;;10.88;2.08;;;;;;;;;;5116898;28;20265;-29
2023/11/03 06:11:02;;;;;;;11.77;1.85;;;;;;;;;;5116985;28;20030;-29
2023/11/03 06:13:27;;;;;;;8.88;1.88;;;;;;;;;;5116775;28;20024;-29
2023/11/03 06:15:52;;;;;;;7.90;2.07;;;;;;;;;;5116672;28;20400;-30
2023/11/03 06:18:18;;;;;;;9.82;2.10;;;;;;;;;;5116752;28;20257;-29
2023/11/03 06:20:43;;;;;;;11.90;2.13;;;;;;;;;;5116656;28;20087;-29
2023/11/03 06:23:08;;;;;;;14.37;2.60;;;;;;;;;;5117173;28;20106;-29
2023/11/03 06:25:33;;;;;;;10.73;2.10;;;;;;;;;;5116793;28;20254;-30
2023/11/03 06:27:58;;;;;;;14.47;2.53;;;;;;;;;;5117073;28;20253;-29
2023/11/03 06:30:24;;;;;;;9.20;1.85;;;;;;;;;;5117275;28;20618;-29
2023/11/03 06:32:50;;;;;;;11.18;2.22;;;;;;;;;;5116937;28;20020;-29
2023/11/03 06:35:15;;;;;;;11.95;1.90;;;;;;;;;;5116360;28;20026;-29
2023/11/03 06:37:40;;;;;;;10.00;2.15;;;;;;;;;;5116250;28;20458;-29
2023/11/03 06:40:10;;;;;;;11.30;2.07;;;;;;;;;;5116323;28;20051;-29
2023/11/03 06:42:35;;;;;;;7.38;1.83;;;;;;;;;;5116150;28;20250;-29
2023/11/03 06:45:00;;;;;;;12.23;2.13;;;;;;;;;;5116742;28;20026;-29
2023/11/03 06:47:25;;;;;;;12.40;2.33;;;;;;;;;;5116152;28;20034;-30
2023/11/03 06:49:50;;;;;;;6.73;1.80;;;;;;;;;;5116085;28;20016;-29
2023/11/03 06:52:16;;;;;;;14.00;2.50;;;;;;;;;;5115885;28;20289;-29
2023/11/03 06:54:43;;;;;;;12.17;2.60;;;;;;;;;;5116029;28;20718;-29
2023/11/03 06:57:08;;;;;;;12.23;2.50;;;;;;;;;;5115760;28;20285;-29
2023/11/03 06:59:34;;;;;;;12.73;2.65;;;;;;;;;;5097616;28;20084;-29
2023/11/03 07:01:59;;;;;;;14.88;2.42;;;;;;;;;;5116136;28;20022;-29
2023/11/03 07:04:24;;;;;;;9.75;2.50;;;;;;;;;;5116299;28;20019;-30
2023/11/03 07:06:50;;;;;;;12.00;3.53;;;;;;;;;;5116028;28;20026;-29
2023/11/03 07:09:16;;;;;;;13.30;2.90;;;;;;;;;;5115691;28;20462;-29
2023/11/03 07:11:41;;;;;;;12.25;2.70;;;;;;;;;;5115532;28;20381;-29
2023/11/03 07:14:06;;;;;;;13.03;3.20;;;;;;;;;;5115598;28;20099;-29
2023/11/03 07:16:31;;;;;;;9.03;2.63;;;;;;;;;;5115750;28;20269;-29
2023/11/03 07:18:57;;;;;;;16.80;3.22;;;;;;;;;;5116043;28;20242;-29
2023/11/03 07:21:22;;;;;;;12.00;2.90;;;;;;;;;;5097977;28;20128;-29
2023/11/03 07:23:47;;;;;;;11.02;2.97;;;;;;;;;;5115346;28;20253;-29
2023/11/03 07:26:13;;;;;;;14.50;3.40;;;;;;;;;;5115293;28;20343;-29
2023/11/03 07:28:38;;;;;;;16.08;3.67;;;;;;;;;;5115738;28;20072;-30
2023/11/03 07:31:03;;;;;;;14.95;2.88;;;;;;;;;;5115794;28;20370;-29
2023/11/03 07:33:30;;;;;;;13.30;2.97;;;;;;;;;;5115475;28;20024;-30
2023/11/03 07:35:55;;;;;;;14.48;3.30;;;;;;;;;;5115045;28;20020;-29
2023/11/03 07:38:20;;;;;;;15.30;2.90;;;;;;;;;;5115275;28;20041;-30
2023/11/03 07:40:45;;;;;;;11.00;2.83;;;;;;;;;;5115000;28;20602;-29
2023/11/03 07:43:10;;;;;;;12.07;2.93;;;;;;;;;;5114920;28;20261;-29
2023/11/03 07:45:38;;;;;;;12.97;3.23;;;;;;;;;;5115483;28;20260;-29
2023/11/03 07:48:04;;;;;;;13.60;2.75;;;;;;;;;;5115213;28;20254;-31
2023/11/03 07:50:29;;;;;;;17.90;3.42;;;;;;;;;;5114616;28;20047;-29
2023/11/03 07:52:54;;;;;;;9.52;2.90;;;;;;;;;;5114965;28;20022;-29
2023/11/03 07:55:20;;;;;;;17.27;3.22;;;;;;;;;;5114946;28;20043;-30
2023/11/03 07:57:45;;;;;;;16.38;2.97;;;;;;;;;;5114619;28;20019;-29
2023/11/03 08:00:12;;;;;;;16.52;2.70;;;;;;;;;;5114431;28;20019;-29
2023/11/03 08:02:37;;;;;;;13.13;3.30;;;;;;;;;;5115120;28;20008;-29
2023/11/03 08:05:03;;;;;;;11.25;2.63;;;;;;;;;;5114490;28;20148;-29
2023/11/03 08:07:28;;;;;;;13.40;2.30;;;;;;;;;;5114425;28;20023;-29
2023/11/03 08:09:54;;;;;;;16.17;2.80;;;;;;;;;;5096130;28;20031;-29
2023/11/03 08:12:19;;;;;;;15.97;2.83;;;;;;;;;;5114977;28;20419;-29
2023/11/03 08:14:45;;;;;;;15.60;2.20;;;;;;;;;;5114725;28;20285;-29
2023/11/03 08:17:11;;;;;;;11.35;2.40;;;;;;;;;;5114483;28;20277;-29
2023/11/03 08:19:36;;;;;;;14.88;2.60;;;;;;;;;;5114521;28;20060;-29
2023/11/03 08:22:01;;;;;;;11.73;2.30;;;;;;;;;;5114793;28;20039;-29
2023/11/03 08:24:26;;;;;;;16.10;3.08;;;;;;;;;;5114536;28;20249;-29
2023/11/03 08:26:51;;;;;;;16.27;2.97;;;;;;;;;;5114398;28;20019;-29
2023/11/03 08:29:17;;;;;;;15.53;2.90;;;;;;;;;;5114297;28;20020;-30
2023/11/03 08:31:45;;;;;;;18.95;2.72;;;;;;;;;;5114291;28;20256;-29
2023/11/03 08:34:13;;;;;;;17.05;2.65;;;;;;;;;;5114346;28;20016;-29
2023/11/03 08:36:38;;;;;;;15.55;2.67;;;;;;;;;;5114206;28;20067;-29
2023/11/03 08:39:06;;;;;;;16.30;2.75;;;;;;;;;;5114322;28;20016;-29
2023/11/03 08:41:31;;;;;;;15.45;2.55;;;;;;;;;;5112479;28;20027;-29
2023/11/03 08:43:56;;;;;;;15.07;2.20;;;;;;;;;;5113099;28;20015;-29
2023/11/03 08:46:21;;;;;;;17.97;3.10;;;;;;;;;;5112972;28;20261;-29
2023/11/03 08:48:47;;;;;;;16.93;3.13;;;;;;;;;;5113092;28;20293;-29
2023/11/03 08:51:12;;;;;;;14.17;4.27;;;;;;;;;;5113764;28;20490;-29
2023/11/03 08:53:37;;;;;;;20.70;7.57;;;;;;;;;;5113762;28;20319;-30
2023/11/03 08:56:02;;;;;;;18.10;2.67;;;;;;;;;;5114220;28;20024;-30
2023/11/03 08:58:30;;;;;;;18.20;2.58;;;;;;;;;;5114396;28;20086;-29
2023/11/03 09:00:56;;;;;;;14.88;2.38;;;;;;;;;;5114092;28;20012;-29
2023/11/03 09:03:21;;;;;;;21.40;5.72;;;;;;;;;;5113014;28;20718;-30
2023/11/03 09:05:46;;;;;;;16.10;2.63;;;;;;;;;;5113778;28;20102;-29
2023/11/03 09:08:12;;;;;;;19.67;2.63;;;;;;;;;;5113975;28;20332;-30
2023/11/03 09:10:37;;;;;;;21.50;2.95;;;;;;;;;;5113742;28;20039;-30
2023/11/03 09:13:04;;;;;;;13.73;2.45;;;;;;;;;;5113847;28;20510;-29
2023/11/03 09:15:29;;;;;;;12.90;2.50;;;;;;;;;;5113871;28;20499;-29
2023/11/03 09:17:54;;;;;;;13.20;2.30;;;;;;;;;;5113759;28;20023;-29
2023/11/03 09:20:20;;;;;;;16.30;2.35;;;;;;;;;;5116924;28;20023;-29
2023/11/03 09:22:47;;;;;;;13.83;2.30;;;;;;;;;;5118258;28;20012;-29
2023/11/03 09:25:13;;;;;;;14.30;2.42;;;;;;;;;;5118001;28;20262;-29
2023/11/03 09:27:38;;;;;;;14.95;2.88;;;;;;;;;;5118012;28;20069;-29
2023/11/03 09:30:05;;;;;;;16.50;3.03;;;;;;;;;;5117869;28;20012;-30
2023/11/03 09:32:30;;;;;;;16.55;2.72;;;;;;;;;;5117862;28;20265;-29
2023/11/03 09:34:56;;;;;;;17.17;2.50;;;;;;;;;;5118163;28;20023;-29
2023/11/03 09:37:22;;;;;;;15.00;2.33;;;;;;;;;;5099102;28;20024;-29
2023/11/03 09:39:47;;;;;;;19.10;4.05;;;;;;;;;;5117776;28;20451;-29
2023/11/03 09:42:16;;;;;;;12.25;2.40;;;;;;;;;;5117999;28;20041;-29
2023/11/03 09:44:41;;;;;;;13.20;2.35;;;;;;;;;;5118119;28;20031;-29
2023/11/03 09:47:08;;;;;;;21.73;2.50;;;;;;;;;;5117888;28;20019;-30
2023/11/03 09:49:35;;;;;;;17.20;2.35;;;;;;;;;;5117442;28;20775;-29
2023/11/03 09:52:07;;;;;;;15.70;2.30;;;;;;;;;;5115766;28;20542;-29
2023/11/03 09:54:33;;;;;;;15.17;3.00;;;;;;;;;;5117228;28;20403;-29
2023/11/03 09:57:08;;;;;;;17.83;2.60;;;;;;;;;;5116441;28;20089;-29
2023/11/03 09:59:36;;;;;;;18.58;2.85;;;;;;;;;;5117664;28;20466;-30
2023/11/03 10:02:04;;;;;;;14.60;2.50;;;;;;;;;;5116750;28;20022;-30
2023/11/03 10:04:30;;;;;;;15.23;2.72;;;;;;;;;;5116887;28;20024;-29
2023/11/03 10:06:56;;;;;;;14.37;2.50;;;;;;;;;;5116234;28;20026;-29
2023/11/03 10:09:23;;;;;;;15.98;2.60;;;;;;;;;;5116347;28;20426;-29
2023/11/03 10:11:48;;;;;;;16.42;3.00;;;;;;;;;;5116422;28;20026;-29
2023/11/03 10:14:13;;;;;;;12.20;2.53;;;;;;;;;;5115936;28;20015;-29
2023/11/03 10:16:38;;;;;;;13.55;2.53;;;;;;;;;;5115981;28;20699;-29
2023/11/03 10:19:04;;;;;;;14.55;2.30;;;;;;;;;;5116219;28;20726;-29
2023/11/03 10:21:29;;;;;;;16.48;2.45;;;;;;;;;;5116216;28;20092;-29
2023/11/03 10:23:56;;;;;;;10.73;2.23;;;;;;;;;;5116281;28;20019;-29
2023/11/03 10:26:22;;;;;;;19.88;3.35;;;;;;;;;;5116749;28;20491;-30
2023/11/03 10:28:48;;;;;;;13.00;2.60;;;;;;;;;;5116466;28;20055;-29
2023/11/03 10:31:14;;;;;;;17.05;2.60;;;;;;;;;;5115738;28;20258;-29
2023/11/03 10:33:40;;;;;;;18.10;2.70;;;;;;;;;;5116349;28;20024;-29
2023/11/03 10:36:08;;;;;;;17.70;2.55;;;;;;;;;;5116840;28;20027;-30
2023/11/03 10:38:33;;;;;;;15.07;2.45;;;;;;;;;;5116355;28;20015;-29
2023/11/03 10:41:01;;;;;;;13.80;2.42;;;;;;;;;;5116824;28;20457;-29
2023/11/03 10:43:28;;;;;;;17.75;2.40;;;;;;;;;;5116484;28;20015;-29
2023/11/03 10:45:57;;;;;;;17.38;2.42;;;;;;;;;;5116661;28;20095;-30
2023/11/03 10:48:41;;;;;;;13.82;2.20;;;;;;;;;;5116038;28;20012;-29
2023/11/03 10:51:09;;;;;;;15.48;2.45;;;;;;;;;;5116422;28;20115;-29
2023/11/03 10:53:49;;;;;;;17.98;3.25;;;;;;;;;;5115925;28;20020;-29
2023/11/03 10:56:15;;;;;;;15.98;2.42;;;;;;;;;;5116497;28;20027;-29
2023/11/03 10:58:41;;;;;;;11.32;2.78;;;;;;;;;;5115823;28;20370;-29
2023/11/03 11:01:12;;;;;;;13.70;2.45;;;;;;;;;;5116261;28;20076;-29
2023/11/03 11:03:44;;;;;;;14.15;2.53;;;;;;;;;;5116192;28;20012;-29
2023/11/03 11:06:16;;;;;;;17.38;2.70;;;;;;;;;;5095533;28;20053;-30
2023/11/03 11:08:42;;;;;;;16.98;2.83;;;;;;;;;;5115762;28;20020;-29
2023/11/03 11:11:11;;;;;;;17.17;2.50;;;;;;;;;;5115463;28;20015;-29
2023/11/03 11:13:38;;;;;;;15.15;2.47;;;;;;;;;;5116485;28;20031;-29
2023/11/03 11:16:05;;;;;;;16.45;2.75;;;;;;;;;;5115296;28;20015;-29
2023/11/03 11:18:33;;;;;;;17.23;2.70;;;;;;;;;;5115201;28;20076;-30
2023/11/03 11:21:06;;;;;;;14.23;2.55;;;;;;;;;;5114421;28;20012;-29
2023/11/03 11:23:32;;;;;;;;;;;;;;;;;;5113715;28;20099;-30
2023/11/03 11:25:57;;;;;;;16.48;3.00;;;;;;;;;;5115242;28;19935;-29
2023/11/03 11:28:32;;;;;;;15.37;2.80;;;;;;;;;;5115216;28;20071;-29
2023/11/03 11:30:57;;;;;;;14.05;2.60;;;;;;;;;;5115513;28;20094;-29
2023/11/03 11:33:29;;;;;;;14.63;2.63;;;;;;;;;;5115212;28;20040;-30
2023/11/03 11:35:54;;;;;;;16.08;2.63;;;;;;;;;;5115696;28;20046;-30
2023/11/03 11:38:20;;;;;;;12.70;3.00;;;;;;;;;;5115076;28;20027;-30
2023/11/03 11:40:46;;;;;;;11.10;2.57;;;;;;;;;;5115406;28;20241;-29
2023/11/03 11:43:11;;;;;;;15.07;2.95;;;;;;;;;;5114090;28;20635;-29
2023/11/03 11:45:37;;;;;;;14.70;3.08;;;;;;;;;;5115110;28;20023;-30
2023/11/03 11:48:04;;;;;;;19.27;3.10;;;;;;;;;;5115128;28;20102;-29
2023/11/03 11:50:30;;;;;;;12.13;2.60;;;;;;;;;;5114917;28;20131;-30
2023/11/03 11:52:55;;;;;;;15.07;2.63;;;;;;;;;;5114761;28;20070;-29
2023/11/03 11:55:22;;;;;;;13.30;2.45;;;;;;;;;;5114976;28;20094;-29
2023/11/03 11:57:47;;;;;;;11.75;2.60;;;;;;;;;;5114128;28;20020;-29
2023/11/03 12:00:15;;;;;;;15.07;2.85;;;;;;;;;;5114122;28;20063;-30
2023/11/03 12:02:40;;;;;;;12.40;2.75;;;;;;;;;;5114804;28;20390;-30
2023/11/03 12:05:06;;;;;;;13.25;2.63;;;;;;;;;;5115103;28;20016;-29
2023/11/03 12:07:32;;;;;;;17.05;2.85;;;;;;;;;;5114196;28;20514;-29
2023/11/03 12:09:57;;;;;;;12.90;2.63;;;;;;;;;;5114671;28;20011;-29
2023/11/03 12:12:23;;;;;;;18.83;2.60;;;;;;;;;;5114450;28;20481;-29
2023/11/03 12:14:49;;;;;;;15.15;2.85;;;;;;;;;;5114303;28;20030;-29
2023/11/03 12:17:15;;;;;;;12.75;2.53;;;;;;;;;;5114773;28;20031;-29
2023/11/03 12:19:44;;;;;;;16.83;2.65;;;;;;;;;;5114224;28;20090;-29
2023/11/03 12:22:19;;;;;;;12.50;2.80;;;;;;;;;;5114526;28;20043;-29
2023/11/03 12:24:44;;;;;;;12.15;2.65;;;;;;;;;;5114459;28;20015;-29
2023/11/03 12:27:09;;;;;;;14.77;2.70;;;;;;;;;;5114961;28;20069;-30
2023/11/03 12:29:36;;;;;;;12.03;2.50;;;;;;;;;;5114456;28;20154;-29
2023/11/03 12:32:04;;;;;;;14.73;2.63;;;;;;;;;;5114356;28;20026;-30
2023/11/03 12:34:30;;;;;;;13.70;2.90;;;;;;;;;;5114290;28;20055;-29
2023/11/03 12:36:56;;;;;;;11.47;2.70;;;;;;;;;;5114479;28;20051;-30
2023/11/03 12:39:22;;;;;;;12.85;2.50;;;;;;;;;;5113903;28;20275;-29
2023/11/03 12:42:03;;;;;;;12.82;2.72;;;;;;;;;;5113853;28;20019;-29
2023/11/03 12:44:31;;;;;;;15.10;2.50;;;;;;;;;;5114153;28;20011;-30
2023/11/03 12:46:57;;;;;;;13.18;2.53;;;;;;;;;;5113864;28;20015;-30
2023/11/03 12:49:22;;;;;;;14.82;2.83;;;;;;;;;;5114121;28;20072;-29
2023/11/03 12:51:47;;;;;;;15.90;2.60;;;;;;;;;;5113661;28;20486;-29
2023/11/03 12:54:14;;;;;;;11.32;2.50;;;;;;;;;;5113410;28;20024;-30
2023/11/03 12:56:44;;;;;;;11.18;2.30;;;;;;;;;;5113884;28;20351;-30
2023/11/03 12:59:09;;;;;;;11.57;2.30;;;;;;;;;;5113652;28;20024;-29
2023/11/03 13:01:34;;;;;;;13.33;2.50;;;;;;;;;;5113874;28;20016;-29
2023/11/03 13:04:00;;;;;;;19.27;3.08;;;;;;;;;;5095721;28;20264;-30
2023/11/03 13:06:25;;;;;;;13.20;2.20;;;;;;;;;;5113688;28;20056;-29
2023/11/03 13:08:50;;;;;;;12.00;2.60;;;;;;;;;;5113727;28;20292;-29
2023/11/03 13:11:17;;;;;;;10.47;2.33;;;;;;;;;;5113853;28;20030;-30
2023/11/03 13:13:42;;;;;;;18.65;2.70;;;;;;;;;;5113483;28;20024;-29
2023/11/03 13:16:07;;;;;;;13.43;2.40;;;;;;;;;;5113532;28;20031;-29
2023/11/03 13:18:32;;;;;;;14.60;2.53;;;;;;;;;;5113427;28;20253;-30
2023/11/03 13:20:57;;;;;;;14.90;2.37;;;;;;;;;;5114031;28;20062;-29
2023/11/03 13:23:23;;;;;;;12.07;1.90;;;;;;;;;;5113427;28;20069;-29
2023/11/03 13:25:48;;;;;;;9.95;2.08;;;;;;;;;;5113610;28;20280;-29
2023/11/03 13:28:13;;;;;;;13.87;1.87;;;;;;;;;;5113291;28;20016;-30
2023/11/03 13:30:38;;;;;;;10.93;2.15;;;;;;;;;;5113545;28;20486;-30
2023/11/03 13:33:03;;;;;;;12.43;2.10;;;;;;;;;;5112900;28;20058;-30
2023/11/03 13:35:29;;;;;;;15.98;2.15;;;;;;;;;;5113615;28;20047;-30
2023/11/03 13:37:54;;;;;;;10.02;2.13;;;;;;;;;;5113507;28;20362;-30
2023/11/03 13:40:20;;;;;;;8.43;1.77;;;;;;;;;;5113726;28;20446;-30
2023/11/03 13:42:46;;;;;;;8.73;1.88;;;;;;;;;;5113740;28;20552;-30
2023/11/03 13:45:11;;;;;;;13.32;2.40;;;;;;;;;;5113802;28;20019;-30
2023/11/03 13:47:37;;;;;;;11.13;2.03;;;;;;;;;;5113498;28;20016;-29
2023/11/03 13:50:02;;;;;;;11.77;1.92;;;;;;;;;;5113180;28;20038;-30
2023/11/03 13:52:28;;;;;;;13.07;2.15;;;;;;;;;;5113191;28;20087;-30
2023/11/03 13:54:54;;;;;;;10.82;1.95;;;;;;;;;;5113585;28;20111;-30
2023/11/03 13:57:20;;;;;;;6.47;1.77;;;;;;;;;;5113416;28;20027;-30
2023/11/03 13:59:46;;;;;;;13.80;2.25;;;;;;;;;;5113464;28;20338;-29
2023/11/03 14:02:11;;;;;;;14.13;2.15;;;;;;;;;;5113503;28;20041;-30
2023/11/03 14:04:39;;;;;;;6.63;1.60;;;;;;;;;;5113280;28;20033;-29
2023/11/03 14:07:04;;;;;;;9.82;1.85;;;;;;;;;;5116162;28;20261;-30
2023/11/03 14:09:30;;;;;;;13.10;1.63;;;;;;;;;;5117128;28;20023;-29
2023/11/03 14:11:56;;;;;;;13.57;2.20;;;;;;;;;;5117008;28;20023;-29
2023/11/03 14:14:21;;;;;;;8.50;1.85;;;;;;;;;;5116661;28;20090;-30
2023/11/03 14:16:47;;;;;;;11.75;1.88;;;;;;;;;;5116902;28;20481;-29
2023/11/03 14:19:12;;;;;;;17.75;2.20;;;;;;;;;;5117153;28;20023;-30
2023/11/03 14:21:41;;;;;;;8.90;2.47;;;;;;;;;;5098312;28;20015;-29
2023/11/03 14:24:08;;;;;;;28.00;2.83;;;;;;;;;;5117138;28;20019;-30
2023/11/03 14:26:34;;;;;;;7.03;1.60;;;;;;;;;;5116773;28;20038;-30
2023/11/03 14:28:59;;;;;;;7.05;1.20;;;;;;;;;;5116707;28;20355;-30